createdAt,value
2023-04-27T00:00:35.650Z,2.25
2023-04-27T00:01:39.913Z,2.27
2023-04-27T00:02:44.322Z,2.25
2023-04-27T00:03:48.516Z,2.27
2023-04-27T00:04:52.649Z,2.27
2023-04-27T00:05:56.979Z,2.28
2023-04-27T00:07:01.134Z,2.28
2023-04-27T00:08:05.392Z,2.27
2023-04-27T00:09:09.530Z,2.26
2023-04-27T00:10:13.823Z,2.29
2023-04-27T00:11:18.133Z,2.30
2023-04-27T00:12:22.299Z,2.31
2023-04-27T00:13:26.637Z,2.33
2023-04-27T00:14:30.787Z,2.31
2023-04-27T00:15:35.059Z,2.31
2023-04-27T00:16:39.250Z,2.32
2023-04-27T00:17:43.507Z,2.30
2023-04-27T00:18:47.683Z,2.30
2023-04-27T00:19:51.888Z,2.29
2023-04-27T00:20:56.106Z,2.31
2023-04-27T00:22:00.610Z,2.30
2023-04-27T00:23:04.550Z,2.31
2023-04-27T00:24:08.774Z,2.29
2023-04-27T00:25:12.990Z,2.29
2023-04-27T00:26:17.270Z,2.29
2023-04-27T00:27:21.519Z,2.29
2023-04-27T00:28:25.706Z,2.27
2023-04-27T00:29:36.107Z,2.28
2023-04-27T00:30:38.993Z,2.27
2023-04-27T00:31:43.208Z,2.27
2023-04-27T00:32:47.395Z,2.28
2023-04-27T00:33:51.731Z,2.31
2023-04-27T00:34:55.847Z,2.30
2023-04-27T00:36:00.195Z,2.29
2023-04-27T00:37:04.343Z,2.30
2023-04-27T00:38:08.642Z,2.31
2023-04-27T00:39:13.232Z,2.32
2023-04-27T00:40:17.151Z,2.32
2023-04-27T00:41:21.444Z,2.33
2023-04-27T00:42:25.562Z,2.33
2023-04-27T00:43:29.862Z,2.33
2023-04-27T00:44:33.965Z,2.29
2023-04-27T00:45:38.410Z,2.28
2023-04-27T00:46:42.428Z,2.26
2023-04-27T00:47:46.706Z,2.21
2023-04-27T00:48:50.951Z,2.22
2023-04-27T00:49:55.221Z,2.22
2023-04-27T00:50:59.480Z,2.22
2023-04-27T00:52:03.726Z,2.22
2023-04-27T00:53:07.923Z,2.23
2023-04-27T00:54:12.193Z,2.23
2023-04-27T00:55:16.488Z,2.21
2023-04-27T00:56:20.816Z,2.21
2023-04-27T00:57:25.050Z,2.21
2023-04-27T00:58:29.269Z,2.21
2023-04-27T00:59:33.506Z,2.22
2023-04-27T01:00:37.666Z,2.21
2023-04-27T01:01:42.036Z,2.23
2023-04-27T01:02:46.195Z,2.25
2023-04-27T01:03:50.481Z,2.27
2023-04-27T01:04:54.573Z,2.27
2023-04-27T01:05:58.890Z,2.30
2023-04-27T01:07:03.199Z,2.30
2023-04-27T01:08:07.310Z,2.28
2023-04-27T01:09:11.667Z,2.29
2023-04-27T01:10:15.805Z,2.30
2023-04-27T01:11:20.069Z,2.31
2023-04-27T01:12:24.221Z,2.29
2023-04-27T01:13:28.530Z,2.28
2023-04-27T01:14:32.675Z,2.27
2023-04-27T01:15:36.916Z,2.26
2023-04-27T01:16:41.226Z,2.27
2023-04-27T01:17:45.398Z,2.29
2023-04-27T01:18:49.644Z,2.29
2023-04-27T01:19:53.819Z,2.30
2023-04-27T01:20:58.194Z,2.27
2023-04-27T01:22:02.427Z,2.24
2023-04-27T01:23:06.560Z,2.22
2023-04-27T01:24:10.768Z,2.20
2023-04-27T01:25:14.993Z,2.18
2023-04-27T01:26:19.181Z,2.19
2023-04-27T01:27:26.415Z,2.20
2023-04-27T01:28:29.742Z,2.20
2023-04-27T01:29:33.891Z,2.17
2023-04-27T01:30:38.169Z,2.14
2023-04-27T01:31:42.460Z,2.12
2023-04-27T01:32:46.593Z,2.11
2023-04-27T01:33:50.876Z,2.13
2023-04-27T01:34:55.155Z,2.14
2023-04-27T01:35:59.292Z,2.18
2023-04-27T01:37:03.618Z,2.18
2023-04-27T01:38:07.763Z,2.17
2023-04-27T01:39:12.182Z,2.18
2023-04-27T01:40:16.169Z,2.17
2023-04-27T01:41:20.431Z,2.18
2023-04-27T01:42:24.601Z,2.17
2023-04-27T01:43:28.912Z,2.13
2023-04-27T01:44:33.069Z,2.12
2023-04-27T01:45:37.263Z,2.13
2023-04-27T01:46:41.768Z,2.13
2023-04-27T01:47:45.749Z,2.14
2023-04-27T01:48:50.003Z,2.15
2023-04-27T01:49:54.203Z,2.15
2023-04-27T01:50:58.407Z,2.16
2023-04-27T01:52:02.753Z,2.16
2023-04-27T01:53:07.004Z,2.15
2023-04-27T01:54:11.285Z,2.16
2023-04-27T01:55:15.455Z,2.17
2023-04-27T01:56:19.761Z,2.19
2023-04-27T01:57:23.915Z,2.21
2023-04-27T01:58:28.225Z,2.22
2023-04-27T01:59:32.412Z,2.23
2023-04-27T02:00:36.701Z,2.22
2023-04-27T02:01:40.966Z,2.21
2023-04-27T02:02:45.215Z,2.18
2023-04-27T02:03:49.585Z,2.18
2023-04-27T02:04:53.657Z,2.18
2023-04-27T02:05:57.900Z,2.15
2023-04-27T02:07:02.002Z,2.13
2023-04-27T02:08:06.283Z,2.15
2023-04-27T02:09:10.470Z,2.13
2023-04-27T02:10:14.666Z,2.13
2023-04-27T02:11:18.952Z,2.10
2023-04-27T02:12:23.114Z,2.07
2023-04-27T02:13:27.311Z,2.05
2023-04-27T02:14:31.676Z,2.09
2023-04-27T02:15:35.825Z,2.09
2023-04-27T02:16:40.103Z,2.07
2023-04-27T02:17:44.281Z,2.05
2023-04-27T02:18:48.434Z,2.03
2023-04-27T02:19:52.734Z,2.03
2023-04-27T02:20:56.903Z,2.03
2023-04-27T02:22:01.116Z,2.03
2023-04-27T02:23:05.386Z,2.05
2023-04-27T02:24:09.630Z,2.07
2023-04-27T02:25:13.896Z,2.07
2023-04-27T02:26:17.996Z,2.07
2023-04-27T02:27:22.196Z,2.10
2023-04-27T02:28:26.376Z,2.10
2023-04-27T02:29:30.539Z,2.08
2023-04-27T02:30:34.736Z,2.06
2023-04-27T02:31:42.067Z,2.05
2023-04-27T02:32:45.314Z,2.05
2023-04-27T02:33:49.578Z,2.04
2023-04-27T02:36:20.734Z,1.99
2023-04-27T02:37:24.942Z,2.00
2023-04-27T02:38:29.102Z,2.00
2023-04-27T02:39:33.270Z,2.01
2023-04-27T02:40:37.487Z,2.01
2023-04-27T02:41:41.702Z,2.02
2023-04-27T02:42:45.913Z,2.02
2023-04-27T02:43:50.080Z,2.02
2023-04-27T02:44:54.353Z,2.04
2023-04-27T02:45:58.500Z,2.04
2023-04-27T02:47:02.739Z,2.02
2023-04-27T02:48:06.896Z,2.03
2023-04-27T02:49:11.129Z,2.04
2023-04-27T02:50:15.274Z,2.03
2023-04-27T02:51:19.553Z,2.05
2023-04-27T02:52:23.729Z,2.08
2023-04-27T02:53:27.994Z,2.08
2023-04-27T02:54:32.156Z,2.10
2023-04-27T02:55:36.425Z,2.12
2023-04-27T02:56:40.679Z,2.14
2023-04-27T02:57:44.997Z,2.14
2023-04-27T02:58:49.112Z,2.14
2023-04-27T02:59:53.429Z,2.14
2023-04-27T03:00:57.901Z,2.16
2023-04-27T03:02:01.994Z,2.16
2023-04-27T03:03:06.318Z,2.15
2023-04-27T03:04:10.526Z,2.16
2023-04-27T03:05:14.677Z,2.15
2023-04-27T03:06:18.881Z,2.15
2023-04-27T03:07:22.989Z,2.15
2023-04-27T03:08:27.078Z,2.16
2023-04-27T03:09:31.329Z,2.16
2023-04-27T03:10:35.621Z,2.18
2023-04-27T03:11:39.780Z,2.19
2023-04-27T03:12:44.117Z,2.18
2023-04-27T03:13:48.244Z,2.17
2023-04-27T03:14:52.443Z,2.17
2023-04-27T03:15:56.813Z,2.20
2023-04-27T03:17:00.825Z,2.23
2023-04-27T03:18:05.160Z,2.24
2023-04-27T03:19:09.345Z,2.24
2023-04-27T03:20:13.552Z,2.26
2023-04-27T03:21:17.807Z,2.28
2023-04-27T03:22:22.042Z,2.30
2023-04-27T03:23:26.291Z,2.32
2023-04-27T03:24:30.470Z,2.31
2023-04-27T03:25:34.823Z,2.30
2023-04-27T03:26:38.952Z,2.27
2023-04-27T03:27:43.128Z,2.26
2023-04-27T03:28:47.365Z,2.26
2023-04-27T03:29:51.639Z,2.27
2023-04-27T03:30:55.867Z,2.27
2023-04-27T03:32:00.265Z,2.28
2023-04-27T03:33:04.304Z,2.28
2023-04-27T03:34:11.495Z,2.28
2023-04-27T03:35:14.777Z,2.28
2023-04-27T03:36:18.996Z,2.25
2023-04-27T03:37:23.183Z,2.25
2023-04-27T03:38:27.360Z,2.25
2023-04-27T03:39:31.576Z,2.25
2023-04-27T03:40:35.892Z,2.24
2023-04-27T03:41:40.171Z,2.25
2023-04-27T03:42:44.385Z,2.25
2023-04-27T03:43:48.570Z,2.25
2023-04-27T03:44:52.728Z,2.23
2023-04-27T03:45:56.988Z,2.21
2023-04-27T03:47:01.178Z,2.16
2023-04-27T03:48:05.370Z,2.16
2023-04-27T03:49:09.512Z,2.16
2023-04-27T03:50:13.719Z,2.17
2023-04-27T03:51:18.092Z,2.18
2023-04-27T03:52:36.344Z,2.19
2023-04-27T03:53:39.391Z,2.15
2023-04-27T03:54:43.495Z,2.11
2023-04-27T03:55:47.683Z,2.07
2023-04-27T03:56:51.998Z,2.07
2023-04-27T03:57:56.204Z,2.06
2023-04-27T03:59:00.361Z,2.05
2023-04-27T04:00:04.512Z,2.04
2023-04-27T04:01:08.750Z,2.05
2023-04-27T04:02:13.066Z,2.07
2023-04-27T04:03:17.435Z,2.06
2023-04-27T04:04:21.564Z,2.07
2023-04-27T04:05:25.754Z,2.08
2023-04-27T04:06:29.951Z,2.10
2023-04-27T04:07:34.220Z,2.13
2023-04-27T04:08:38.428Z,2.14
2023-04-27T04:09:42.732Z,2.17
2023-04-27T04:10:47.042Z,2.15
2023-04-27T04:11:51.176Z,2.12
2023-04-27T04:12:55.530Z,2.10
2023-04-27T04:13:59.742Z,2.10
2023-04-27T04:15:03.994Z,2.11
2023-04-27T04:16:08.221Z,2.12
2023-04-27T04:17:12.444Z,2.14
2023-04-27T04:18:16.649Z,2.15
2023-04-27T04:19:22.112Z,2.17
2023-04-27T04:20:24.988Z,2.19
2023-04-27T04:21:29.309Z,2.20
2023-04-27T04:22:33.555Z,2.21
2023-04-27T04:23:37.847Z,2.22
2023-04-27T04:24:42.100Z,2.23
2023-04-27T04:25:46.339Z,2.24
2023-04-27T04:26:50.608Z,2.23
2023-04-27T04:27:54.785Z,2.25
2023-04-27T04:28:59.014Z,2.26
2023-04-27T04:30:03.185Z,2.27
2023-04-27T04:31:07.424Z,2.27
2023-04-27T04:32:11.601Z,2.28
2023-04-27T04:33:15.888Z,2.29
2023-04-27T04:34:20.140Z,2.29
2023-04-27T04:35:24.322Z,2.32
2023-04-27T04:36:28.713Z,2.33
2023-04-27T04:37:32.801Z,2.36
2023-04-27T04:38:40.006Z,2.38
2023-04-27T04:39:43.286Z,2.40
2023-04-27T04:40:47.473Z,2.43
2023-04-27T04:41:51.704Z,2.44
2023-04-27T04:42:55.865Z,2.47
2023-04-27T04:44:00.125Z,2.49
2023-04-27T04:45:04.374Z,2.51
2023-04-27T04:46:08.612Z,2.51
2023-04-27T04:47:12.716Z,2.53
2023-04-27T04:48:16.978Z,2.54
2023-04-27T04:49:21.141Z,2.56
2023-04-27T04:50:25.368Z,2.54
2023-04-27T04:51:29.621Z,2.53
2023-04-27T04:52:33.768Z,2.53
2023-04-27T04:53:38.145Z,2.57
2023-04-27T04:54:42.280Z,2.60
2023-04-27T04:55:46.562Z,2.63
2023-04-27T04:56:50.818Z,2.68
2023-04-27T04:57:55.161Z,2.70
2023-04-27T04:58:59.328Z,2.74
2023-04-27T05:00:03.575Z,2.77
2023-04-27T05:01:08.026Z,2.80
2023-04-27T05:02:12.120Z,2.83
2023-04-27T05:03:16.504Z,2.86
2023-04-27T05:04:21.051Z,2.90
2023-04-27T05:05:24.733Z,2.93
2023-04-27T05:06:28.959Z,2.95
2023-04-27T05:07:33.169Z,2.96
2023-04-27T05:08:37.457Z,2.98
2023-04-27T05:09:41.604Z,3.02
2023-04-27T05:10:45.814Z,3.04
2023-04-27T05:11:50.046Z,3.07
2023-04-27T05:12:54.276Z,3.10
2023-04-27T05:13:58.516Z,3.12
2023-04-27T05:15:02.753Z,3.16
2023-04-27T05:16:06.989Z,3.18
2023-04-27T05:17:11.283Z,3.24
2023-04-27T05:18:15.478Z,3.26
2023-04-27T05:19:19.633Z,3.29
2023-04-27T05:20:23.801Z,3.33
2023-04-27T05:21:28.010Z,3.33
2023-04-27T05:22:32.323Z,3.34
2023-04-27T05:23:36.496Z,3.37
2023-04-27T05:24:40.734Z,3.40
2023-04-27T05:25:45.049Z,3.44
2023-04-27T05:26:49.214Z,3.46
2023-04-27T05:27:53.488Z,3.49
2023-04-27T05:28:57.643Z,3.52
2023-04-27T05:30:01.898Z,3.55
2023-04-27T05:31:06.118Z,3.59
2023-04-27T05:32:10.376Z,3.62
2023-04-27T05:33:14.591Z,3.64
2023-04-27T05:34:18.767Z,3.67
2023-04-27T05:35:23.010Z,3.72
2023-04-27T05:36:27.231Z,3.76
2023-04-27T05:37:31.429Z,3.83
2023-04-27T05:38:35.697Z,3.85
2023-04-27T05:39:39.931Z,3.90
2023-04-27T05:40:44.235Z,3.95
2023-04-27T05:41:48.426Z,4.01
2023-04-27T05:42:55.675Z,4.08
2023-04-27T05:43:58.942Z,4.10
2023-04-27T05:45:03.217Z,4.12
2023-04-27T05:46:07.455Z,4.12
2023-04-27T05:47:11.631Z,4.15
2023-04-27T05:48:15.859Z,4.13
2023-04-27T05:49:20.248Z,4.14
2023-04-27T05:50:24.395Z,4.20
2023-04-27T05:51:28.585Z,4.24
2023-04-27T05:52:32.829Z,4.28
2023-04-27T05:53:37.013Z,4.33
2023-04-27T05:54:41.321Z,4.42
2023-04-27T05:55:45.651Z,4.52
2023-04-27T05:56:49.826Z,4.64
2023-04-27T05:58:04.647Z,4.81
2023-04-27T05:58:59.091Z,4.98
2023-04-27T06:00:02.481Z,5.08
2023-04-27T06:01:06.771Z,5.16
2023-04-27T06:02:10.851Z,5.22
2023-04-27T06:03:15.395Z,5.27
2023-04-27T06:04:19.689Z,5.32
2023-04-27T06:05:23.700Z,5.39
2023-04-27T06:06:27.922Z,5.44
2023-04-27T06:07:32.184Z,5.49
2023-04-27T06:08:36.408Z,5.49
2023-04-27T06:09:40.668Z,5.45
2023-04-27T06:10:44.933Z,5.43
2023-04-27T06:11:49.285Z,5.41
2023-04-27T06:12:53.458Z,5.39
2023-04-27T06:13:57.720Z,5.40
2023-04-27T06:15:01.951Z,5.44
2023-04-27T06:16:06.251Z,5.48
2023-04-27T06:17:10.420Z,5.52
2023-04-27T06:18:14.733Z,5.56
2023-04-27T06:19:18.885Z,5.61
2023-04-27T06:20:23.204Z,5.64
2023-04-27T06:21:27.604Z,5.65
2023-04-27T06:22:31.752Z,5.69
2023-04-27T06:23:36.006Z,5.71
2023-04-27T06:24:40.389Z,5.77
2023-04-27T06:25:44.580Z,5.82
2023-04-27T06:26:48.806Z,5.87
2023-04-27T06:27:53.074Z,5.94
2023-04-27T06:28:57.322Z,6.01
2023-04-27T06:30:01.646Z,6.03
2023-04-27T06:31:05.934Z,6.02
2023-04-27T06:32:10.276Z,5.97
2023-04-27T06:33:14.409Z,5.89
2023-04-27T06:34:18.728Z,5.83
2023-04-27T06:35:22.968Z,5.80
2023-04-27T06:36:27.266Z,5.80
2023-04-27T06:37:31.502Z,5.78
2023-04-27T06:38:35.633Z,5.76
2023-04-27T06:39:39.995Z,5.74
2023-04-27T06:40:44.213Z,5.75
2023-04-27T06:41:48.379Z,5.71
2023-04-27T06:42:55.681Z,5.65
2023-04-27T06:43:59.284Z,5.63
2023-04-27T06:45:03.217Z,5.58
2023-04-27T06:46:07.498Z,5.57
2023-04-27T06:47:11.781Z,5.57
2023-04-27T06:48:16.188Z,5.59
2023-04-27T06:49:20.288Z,5.64
2023-04-27T06:50:24.642Z,5.67
2023-04-27T06:51:28.854Z,5.68
2023-04-27T06:52:33.217Z,5.70
2023-04-27T06:53:37.556Z,5.77
2023-04-27T06:54:41.716Z,5.79
2023-04-27T06:55:48.300Z,5.82
2023-04-27T06:56:50.271Z,5.85
2023-04-27T06:57:54.526Z,5.87
2023-04-27T06:58:58.684Z,5.92
2023-04-27T07:00:03.113Z,5.98
2023-04-27T07:01:07.450Z,6.01
2023-04-27T07:02:11.629Z,6.07
2023-04-27T07:03:16.041Z,6.13
2023-04-27T07:04:20.186Z,6.10
2023-04-27T07:05:24.420Z,6.11
2023-04-27T07:06:31.734Z,6.10
2023-04-27T07:07:35.168Z,6.03
2023-04-27T07:08:39.325Z,6.03
2023-04-27T07:09:43.576Z,6.07
2023-04-27T07:10:47.836Z,6.09
2023-04-27T07:11:52.209Z,6.14
2023-04-27T07:12:56.458Z,6.18
2023-04-27T07:14:00.674Z,6.20
2023-04-27T07:15:04.976Z,6.22
2023-04-27T07:16:09.307Z,6.16
2023-04-27T07:17:13.535Z,6.05
2023-04-27T07:18:17.816Z,6.00
2023-04-27T07:19:22.163Z,5.99
2023-04-27T07:20:26.430Z,6.01
2023-04-27T07:21:30.941Z,6.00
2023-04-27T07:22:34.936Z,5.97
2023-04-27T07:23:39.210Z,5.78
2023-04-27T07:24:43.548Z,5.62
2023-04-27T07:25:47.656Z,5.59
2023-04-27T07:26:52.008Z,5.65
2023-04-27T07:27:56.228Z,5.76
2023-04-27T07:29:02.826Z,5.83
2023-04-27T07:30:04.721Z,5.77
2023-04-27T07:31:09.104Z,5.76
2023-04-27T07:32:13.224Z,5.89
2023-04-27T07:33:17.435Z,5.99
2023-04-27T07:34:21.724Z,6.05
2023-04-27T07:35:26.068Z,6.02
2023-04-27T07:36:30.351Z,6.00
2023-04-27T07:37:34.607Z,5.94
2023-04-27T07:38:38.797Z,5.86
2023-04-27T07:39:43.098Z,5.87
2023-04-27T07:40:47.357Z,5.89
2023-04-27T07:41:51.739Z,5.89
2023-04-27T07:42:55.926Z,5.89
2023-04-27T07:44:00.279Z,5.93
2023-04-27T07:45:04.523Z,6.00
2023-04-27T07:46:11.785Z,6.03
2023-04-27T07:47:21.038Z,6.04
2023-04-27T07:48:24.053Z,6.09
2023-04-27T07:49:28.171Z,6.09
2023-04-27T07:50:32.438Z,6.10
2023-04-27T07:51:36.692Z,6.11
2023-04-27T07:52:40.955Z,6.09
2023-04-27T07:53:47.699Z,6.05
2023-04-27T07:54:49.431Z,5.98
2023-04-27T07:55:53.805Z,5.90
2023-04-27T07:56:58.038Z,5.90
2023-04-27T07:58:02.289Z,5.89
2023-04-27T07:59:06.541Z,5.77
2023-04-27T08:00:10.876Z,5.70
2023-04-27T08:01:15.212Z,5.69
2023-04-27T08:02:20.311Z,5.71
2023-04-27T08:03:23.907Z,5.74
2023-04-27T08:04:28.473Z,5.63
2023-04-27T08:05:32.845Z,5.64
2023-04-27T08:06:37.181Z,5.65
2023-04-27T08:07:44.380Z,5.63
2023-04-27T08:08:45.131Z,5.51
2023-04-27T08:09:49.359Z,5.54
2023-04-27T08:10:53.628Z,5.51
2023-04-27T08:11:58.001Z,5.47
2023-04-27T08:13:02.121Z,5.54
2023-04-27T08:14:06.440Z,5.61
2023-04-27T08:15:10.707Z,5.69
2023-04-27T08:16:15.090Z,5.66
2023-04-27T08:17:19.232Z,5.57
2023-04-27T08:18:23.494Z,5.52
2023-04-27T08:19:27.708Z,5.53
2023-04-27T08:20:31.978Z,5.60
2023-04-27T08:21:36.275Z,5.61
2023-04-27T08:22:40.637Z,5.55
2023-04-27T08:23:44.849Z,5.53
2023-04-27T08:24:49.121Z,5.46
2023-04-27T08:25:53.489Z,5.42
2023-04-27T08:26:57.673Z,5.40
2023-04-27T08:28:02.169Z,5.35
2023-04-27T08:29:12.052Z,5.26
2023-04-27T08:30:10.461Z,5.29
2023-04-27T08:31:14.797Z,5.19
2023-04-27T08:32:18.875Z,5.19
2023-04-27T08:33:23.079Z,5.22
2023-04-27T08:34:27.401Z,5.20
2023-04-27T08:35:31.704Z,5.20
2023-04-27T08:36:35.906Z,5.19
2023-04-27T08:37:40.164Z,5.11
2023-04-27T08:38:44.540Z,5.01
2023-04-27T08:39:48.742Z,4.93
2023-04-27T08:40:53.090Z,4.81
2023-04-27T08:41:57.339Z,4.81
2023-04-27T08:43:01.540Z,4.89
2023-04-27T08:44:05.964Z,4.99
2023-04-27T08:45:10.062Z,5.03
2023-04-27T08:46:14.382Z,5.03
2023-04-27T08:47:25.576Z,4.97
2023-04-27T08:48:22.823Z,4.97
2023-04-27T08:49:27.184Z,4.93
2023-04-27T08:50:31.364Z,4.93
2023-04-27T08:51:35.719Z,4.92
2023-04-27T08:52:39.775Z,4.87
2023-04-27T08:53:43.991Z,4.90
2023-04-27T08:54:48.280Z,5.01
2023-04-27T08:55:52.652Z,5.12
2023-04-27T08:56:56.866Z,5.27
2023-04-27T08:58:01.248Z,5.43
2023-04-27T08:59:05.448Z,5.56
2023-04-27T09:00:09.722Z,5.64
2023-04-27T09:01:13.971Z,5.81
2023-04-27T09:02:18.258Z,5.89
2023-04-27T09:03:22.816Z,5.80
2023-04-27T09:04:27.052Z,5.74
2023-04-27T09:05:31.142Z,5.77
2023-04-27T09:06:35.593Z,5.72
2023-04-27T09:07:39.603Z,5.55
2023-04-27T09:08:43.925Z,5.39
2023-04-27T09:09:48.148Z,5.21
2023-04-27T09:10:52.519Z,5.17
2023-04-27T09:11:56.740Z,5.00
2023-04-27T09:13:01.268Z,4.82
2023-04-27T09:14:05.305Z,4.82
2023-04-27T09:15:09.544Z,4.82
2023-04-27T09:16:13.986Z,4.88
2023-04-27T09:17:18.009Z,5.07
2023-04-27T09:18:22.335Z,5.34
2023-04-27T09:19:26.579Z,5.59
2023-04-27T09:20:30.950Z,5.72
2023-04-27T09:21:35.270Z,5.86
2023-04-27T09:22:39.660Z,5.98
2023-04-27T09:23:43.984Z,6.03
2023-04-27T09:24:48.214Z,5.87
2023-04-27T09:25:52.536Z,5.75
2023-04-27T09:26:58.401Z,5.65
2023-04-27T09:28:01.150Z,5.49
2023-04-27T09:29:05.443Z,5.47
2023-04-27T09:30:09.777Z,5.38
2023-04-27T09:31:14.081Z,5.35
2023-04-27T09:32:32.419Z,5.24
2023-04-27T09:33:35.581Z,5.13
2023-04-27T09:34:39.801Z,5.06
2023-04-27T09:35:44.032Z,5.03
2023-04-27T09:36:48.284Z,4.98
2023-04-27T09:37:52.613Z,4.97
2023-04-27T09:38:56.887Z,4.93
2023-04-27T09:40:01.150Z,4.97
2023-04-27T09:41:05.412Z,4.89
2023-04-27T09:42:09.674Z,4.83
2023-04-27T09:43:13.971Z,4.89
2023-04-27T09:44:18.134Z,5.01
2023-04-27T09:45:22.496Z,5.16
2023-04-27T09:46:26.899Z,5.32
2023-04-27T09:47:31.071Z,5.45
2023-04-27T09:48:35.328Z,5.54
2023-04-27T09:49:39.705Z,5.67
2023-04-27T09:50:44.015Z,5.74
2023-04-27T09:51:48.262Z,5.84
2023-04-27T09:52:52.631Z,5.95
2023-04-27T09:54:11.011Z,5.98
2023-04-27T09:55:20.146Z,5.97
2023-04-27T09:56:36.997Z,5.86
2023-04-27T09:57:39.877Z,5.74
2023-04-27T09:58:44.092Z,5.75
2023-04-27T09:59:48.383Z,5.79
2023-04-27T10:00:52.700Z,5.90
2023-04-27T10:01:56.956Z,6.01
2023-04-27T10:03:01.329Z,5.90
2023-04-27T10:04:05.551Z,5.92
2023-04-27T10:05:09.757Z,5.90
2023-04-27T10:06:14.089Z,5.99
2023-04-27T10:07:18.314Z,5.85
2023-04-27T10:08:22.636Z,5.65
2023-04-27T10:09:26.959Z,5.49
2023-04-27T10:10:31.286Z,5.47
2023-04-27T10:11:35.611Z,5.44
2023-04-27T10:12:39.861Z,5.23
2023-04-27T10:13:44.228Z,5.16
2023-04-27T10:14:48.441Z,5.25
2023-04-27T10:15:52.717Z,5.16
2023-04-27T10:16:57.110Z,5.18
2023-04-27T10:18:01.296Z,5.07
2023-04-27T10:19:05.507Z,5.11
2023-04-27T10:20:09.851Z,5.01
2023-04-27T10:21:14.072Z,4.93
2023-04-27T10:22:18.438Z,4.83
2023-04-27T10:23:22.680Z,4.82
2023-04-27T10:24:26.908Z,4.85
2023-04-27T10:25:31.197Z,4.93
2023-04-27T10:26:37.344Z,5.01
2023-04-27T10:27:39.746Z,5.11
2023-04-27T10:28:43.986Z,4.93
2023-04-27T10:29:48.251Z,4.87
2023-04-27T10:30:52.690Z,4.79
2023-04-27T10:31:56.823Z,4.72
2023-04-27T10:33:01.240Z,4.70
2023-04-27T10:34:05.386Z,4.76
2023-04-27T10:35:09.772Z,4.77
2023-04-27T10:36:13.985Z,4.62
2023-04-27T10:37:18.256Z,4.51
2023-04-27T10:38:22.492Z,4.58
2023-04-27T10:39:39.655Z,4.64
2023-04-27T10:40:31.013Z,4.65
2023-04-27T10:41:35.291Z,4.67
2023-04-27T10:42:39.604Z,4.64
2023-04-27T10:43:43.950Z,4.76
2023-04-27T10:44:48.181Z,4.78
2023-04-27T10:45:52.424Z,4.85
2023-04-27T10:46:56.648Z,4.81
2023-04-27T10:48:01.041Z,4.85
2023-04-27T10:49:05.174Z,4.71
2023-04-27T10:50:09.460Z,4.79
2023-04-27T10:51:13.728Z,4.82
2023-04-27T10:52:18.046Z,4.75
2023-04-27T10:53:22.337Z,4.84
2023-04-27T10:54:26.607Z,4.62
2023-04-27T10:55:30.907Z,4.37
2023-04-27T10:56:35.154Z,4.50
2023-04-27T10:57:39.517Z,4.69
2023-04-27T10:58:49.036Z,4.77
2023-04-27T10:59:47.968Z,4.98
2023-04-27T11:00:52.369Z,5.14
2023-04-27T11:01:56.729Z,5.24
2023-04-27T11:03:01.238Z,5.33
2023-04-27T11:04:05.340Z,5.37
2023-04-27T11:05:09.827Z,5.26
2023-04-27T11:06:14.057Z,5.36
2023-04-27T11:07:18.341Z,5.42
2023-04-27T11:08:22.681Z,5.43
2023-04-27T11:09:26.928Z,5.44
2023-04-27T11:10:31.223Z,5.29
2023-04-27T11:11:35.527Z,5.06
2023-04-27T11:12:39.809Z,4.89
2023-04-27T11:13:44.110Z,5.06
2023-04-27T11:14:48.522Z,5.26
2023-04-27T11:15:52.762Z,5.34
2023-04-27T11:17:00.024Z,5.32
2023-04-27T11:18:03.418Z,5.39
2023-04-27T11:19:07.673Z,5.46
2023-04-27T11:20:11.944Z,5.27
2023-04-27T11:21:16.354Z,4.90
2023-04-27T11:22:20.594Z,4.81
2023-04-27T11:23:24.956Z,4.64
2023-04-27T11:24:29.278Z,4.41
2023-04-27T11:25:33.631Z,4.52
2023-04-27T11:26:37.836Z,4.56
2023-04-27T11:27:42.143Z,4.81
2023-04-27T11:28:46.491Z,4.93
2023-04-27T11:29:50.811Z,5.00
2023-04-27T11:30:55.022Z,5.17
2023-04-27T11:31:59.336Z,5.34
2023-04-27T11:33:03.670Z,5.38
2023-04-27T11:34:08.017Z,5.57
2023-04-27T11:35:12.177Z,5.76
2023-04-27T11:36:16.520Z,5.83
2023-04-27T11:37:20.802Z,5.67
2023-04-27T11:38:25.171Z,5.44
2023-04-27T11:39:29.558Z,5.38
2023-04-27T11:40:33.762Z,5.37
2023-04-27T11:41:38.067Z,5.34
2023-04-27T11:42:42.379Z,5.08
2023-04-27T11:43:46.680Z,5.16
2023-04-27T11:44:51.064Z,5.12
2023-04-27T11:45:55.409Z,5.20
2023-04-27T11:46:59.706Z,5.21
2023-04-27T11:48:04.103Z,5.38
2023-04-27T11:49:08.300Z,5.52
2023-04-27T11:50:12.774Z,5.65
2023-04-27T11:51:17.009Z,5.70
2023-04-27T11:52:21.341Z,5.75
2023-04-27T11:53:25.718Z,5.75
2023-04-27T11:54:30.065Z,6.02
2023-04-27T11:55:34.479Z,5.92
2023-04-27T11:56:38.781Z,5.99
2023-04-27T11:57:43.090Z,6.14
2023-04-27T11:58:47.405Z,6.56
2023-04-27T11:59:51.758Z,6.45
2023-04-27T12:01:05.116Z,6.75
2023-04-27T12:02:07.906Z,6.68
2023-04-27T12:03:12.391Z,6.14
2023-04-27T12:04:16.949Z,5.96
2023-04-27T12:05:21.118Z,5.76
2023-04-27T12:06:32.814Z,5.62
2023-04-27T12:07:29.562Z,5.48
2023-04-27T12:08:33.825Z,5.20
2023-04-27T12:09:38.143Z,5.16
2023-04-27T12:10:42.513Z,5.06
2023-04-27T12:11:46.872Z,4.95
2023-04-27T12:12:51.121Z,4.93
2023-04-27T12:13:55.524Z,4.76
2023-04-27T12:14:59.787Z,4.56
2023-04-27T12:16:04.085Z,4.73
2023-04-27T12:17:08.519Z,4.60
2023-04-27T12:18:12.648Z,4.63
2023-04-27T12:19:17.010Z,4.54
2023-04-27T12:20:21.171Z,4.44
2023-04-27T12:21:25.608Z,4.63
2023-04-27T12:22:29.953Z,4.97
2023-04-27T12:23:34.212Z,5.16
2023-04-27T12:24:38.582Z,5.29
2023-04-27T12:25:42.867Z,5.40
2023-04-27T12:26:47.215Z,5.75
2023-04-27T12:27:51.617Z,5.86
2023-04-27T12:28:55.949Z,6.12
2023-04-27T12:30:00.284Z,6.03
2023-04-27T12:31:04.603Z,5.97
2023-04-27T12:32:09.017Z,5.79
2023-04-27T12:33:13.438Z,5.45
2023-04-27T12:34:17.644Z,5.37
2023-04-27T12:35:22.139Z,5.50
2023-04-27T12:36:26.410Z,5.55
2023-04-27T12:37:30.816Z,5.74
2023-04-27T12:38:35.241Z,5.91
2023-04-27T12:39:39.503Z,6.19
2023-04-27T12:40:43.886Z,6.40
2023-04-27T12:41:48.312Z,6.39
2023-04-27T12:42:52.622Z,6.47
2023-04-27T12:43:56.970Z,6.32
2023-04-27T12:45:01.350Z,6.17
2023-04-27T12:46:05.914Z,5.67
2023-04-27T12:47:10.288Z,6.16
2023-04-27T12:48:16.198Z,6.05
2023-04-27T12:49:19.073Z,5.97
2023-04-27T12:50:23.421Z,5.78
2023-04-27T12:51:27.776Z,5.83
2023-04-27T12:52:32.151Z,5.54
2023-04-27T12:53:36.653Z,5.60
2023-04-27T12:54:40.880Z,5.96
2023-04-27T12:55:45.306Z,6.58
2023-04-27T12:56:49.702Z,6.05
2023-04-27T12:57:53.956Z,5.99
2023-04-27T12:58:58.440Z,6.12
2023-04-27T13:00:02.753Z,5.85
2023-04-27T13:01:07.134Z,5.80
2023-04-27T13:02:11.401Z,5.57
2023-04-27T13:03:15.073Z,5.86
2023-04-27T13:04:19.926Z,6.04
2023-04-27T13:05:23.830Z,5.68
2023-04-27T13:06:28.188Z,5.10
2023-04-27T13:07:32.497Z,4.90
2023-04-27T13:08:36.897Z,4.75
2023-04-27T13:09:41.102Z,4.38
2023-04-27T13:10:45.489Z,4.03
2023-04-27T13:11:49.845Z,3.93
2023-04-27T13:12:54.186Z,3.85
2023-04-27T13:13:58.487Z,4.03
2023-04-27T13:15:02.892Z,4.05
2023-04-27T13:16:07.134Z,4.13
2023-04-27T13:17:11.368Z,4.16
2023-04-27T13:18:15.836Z,4.19
2023-04-27T13:19:20.090Z,4.17
2023-04-27T13:20:24.371Z,4.22
2023-04-27T13:21:28.654Z,4.33
2023-04-27T13:22:33.109Z,4.46
2023-04-27T13:23:37.382Z,4.63
2023-04-27T13:24:41.727Z,4.66
2023-04-27T13:25:46.148Z,4.69
2023-04-27T13:26:50.473Z,4.69
2023-04-27T13:27:54.750Z,4.62
2023-04-27T13:28:59.094Z,4.58
2023-04-27T13:30:03.605Z,4.56
2023-04-27T13:31:07.840Z,4.63
2023-04-27T13:32:12.140Z,4.69
2023-04-27T13:33:22.750Z,4.78
2023-04-27T13:34:20.866Z,4.82
2023-04-27T13:35:25.307Z,4.92
2023-04-27T13:36:29.607Z,4.63
2023-04-27T13:37:34.007Z,4.48
2023-04-27T13:38:38.259Z,4.53
2023-04-27T13:39:42.575Z,4.56
2023-04-27T13:40:46.926Z,4.54
2023-04-27T13:41:51.185Z,4.53
2023-04-27T13:42:55.577Z,4.42
2023-04-27T13:43:59.894Z,4.44
2023-04-27T13:45:04.165Z,4.56
2023-04-27T13:46:08.547Z,4.64
2023-04-27T13:47:12.935Z,4.68
2023-04-27T13:48:17.190Z,4.69
2023-04-27T13:49:21.510Z,4.81
2023-04-27T13:50:25.769Z,5.00
2023-04-27T13:51:30.166Z,5.14
2023-04-27T13:52:34.520Z,5.16
2023-04-27T13:53:38.830Z,5.19
2023-04-27T13:54:43.188Z,5.26
2023-04-27T13:55:47.571Z,5.29
2023-04-27T13:56:51.832Z,5.29
2023-04-27T13:57:56.219Z,5.27
2023-04-27T13:59:00.634Z,5.22
2023-04-27T14:00:05.015Z,5.17
2023-04-27T14:01:09.361Z,5.24
2023-04-27T14:02:13.613Z,5.24
2023-04-27T14:03:18.143Z,5.15
2023-04-27T14:04:22.307Z,5.05
2023-04-27T14:05:26.570Z,5.08
2023-04-27T14:06:31.025Z,5.05
2023-04-27T14:07:35.319Z,4.95
2023-04-27T14:08:39.577Z,4.86
2023-04-27T14:09:43.998Z,4.81
2023-04-27T14:10:48.233Z,4.80
2023-04-27T14:11:56.389Z,4.85
2023-04-27T14:12:56.830Z,4.84
2023-04-27T14:14:01.129Z,4.92
2023-04-27T14:15:05.387Z,4.98
2023-04-27T14:16:09.798Z,5.02
2023-04-27T14:17:14.070Z,5.05
2023-04-27T14:18:18.415Z,5.02